createdAt,value
2019-06-10T00:00:52.570Z,67.68
2019-06-10T00:02:57.661Z,67.58
2019-06-10T00:05:03.736Z,67.68
2019-06-10T00:07:07.526Z,67.62
2019-06-10T00:09:12.526Z,67.67
2019-06-10T00:11:16.435Z,67.75
2019-06-10T00:13:20.968Z,67.75
2019-06-10T00:15:25.000Z,67.55
2019-06-10T00:17:31.311Z,67.56
2019-06-10T00:19:34.517Z,67.45
2019-06-10T00:21:38.467Z,67.42
2019-06-10T00:23:42.477Z,67.41
2019-06-10T00:25:46.362Z,67.51
2019-06-10T00:27:51.178Z,67.54
2019-06-10T00:29:55.173Z,67.58
2019-06-10T00:32:01.732Z,67.64
2019-06-10T00:34:06.245Z,67.79
2019-06-10T00:36:13.396Z,67.88
2019-06-10T00:38:15.929Z,67.97
2019-06-10T00:40:21.443Z,67.97
2019-06-10T00:42:25.574Z,68.04
2019-06-10T00:44:31.128Z,67.95
2019-06-10T00:46:35.060Z,67.89
2019-06-10T00:48:41.045Z,67.77
2019-06-10T00:50:44.544Z,67.68
2019-06-10T00:52:48.387Z,67.61
2019-06-10T00:54:52.350Z,67.70
2019-06-10T00:56:56.221Z,67.69
2019-06-10T00:59:01.009Z,67.64
2019-06-10T01:01:06.116Z,67.65
2019-06-10T01:03:13.454Z,67.55
2019-06-10T01:05:15.505Z,67.62
2019-06-10T01:07:21.646Z,67.82
2019-06-10T01:09:25.215Z,67.90
2019-06-10T01:11:31.011Z,67.72
2019-06-10T01:13:34.583Z,67.48
2019-06-10T01:15:38.565Z,67.62
2019-06-10T01:17:42.490Z,67.70
2019-06-10T01:19:46.380Z,68.04
2019-06-10T01:21:51.131Z,68.30
2019-06-10T01:23:55.520Z,68.57
2019-06-10T01:26:01.572Z,68.75
2019-06-10T01:28:05.642Z,68.83
2019-06-10T01:30:18.737Z,68.99
2019-06-10T01:32:16.082Z,69.13
2019-06-10T01:34:21.810Z,69.17
2019-06-10T01:36:25.557Z,69.30
2019-06-10T01:38:31.538Z,69.41
2019-06-10T01:40:34.965Z,69.59
2019-06-10T01:42:41.206Z,69.75
2019-06-10T01:44:44.414Z,69.92
2019-06-10T01:46:48.152Z,70.00
2019-06-10T01:48:52.343Z,70.11
2019-06-10T01:50:56.347Z,70.08
2019-06-10T01:53:00.640Z,70.00
2019-06-10T01:55:05.436Z,69.92
2019-06-10T01:57:12.261Z,70.08
2019-06-10T01:59:15.759Z,70.09
2019-06-10T02:01:26.836Z,70.02
2019-06-10T02:03:31.448Z,69.92
2019-06-10T02:05:35.564Z,69.94
2019-06-10T02:07:40.971Z,69.93
2019-06-10T02:09:44.872Z,69.98
2019-06-10T02:11:51.269Z,70.08
2019-06-10T02:13:54.215Z,70.01
2019-06-10T02:16:00.971Z,69.99
2019-06-10T02:18:04.365Z,70.04
2019-06-10T02:20:08.277Z,70.00
2019-06-10T02:22:14.976Z,70.13
2019-06-10T02:24:19.043Z,70.22
2019-06-10T02:26:23.775Z,70.29
2019-06-10T02:28:27.537Z,70.35
2019-06-10T02:30:41.715Z,70.34
2019-06-10T02:32:37.967Z,70.36
2019-06-10T02:34:55.025Z,70.53
2019-06-10T02:36:47.635Z,70.52
2019-06-10T02:38:53.969Z,70.62
2019-06-10T02:40:57.097Z,70.91
2019-06-10T02:43:03.557Z,70.96
2019-06-10T02:45:08.987Z,70.96
2019-06-10T02:47:15.840Z,70.98
2019-06-10T02:49:35.150Z,70.92
2019-06-10T02:51:30.186Z,70.96
2019-06-10T02:53:32.201Z,70.99
2019-06-10T02:55:35.370Z,70.94
2019-06-10T02:57:40.516Z,70.77
2019-06-10T02:59:44.559Z,70.72
2019-06-10T03:01:48.404Z,70.72
2019-06-10T03:03:54.388Z,70.69
2019-06-10T03:05:57.854Z,70.70
2019-06-10T03:08:03.857Z,70.71
2019-06-10T03:10:07.590Z,70.66
2019-06-10T03:12:12.243Z,70.48
2019-06-10T03:14:16.141Z,70.44
2019-06-10T03:16:32.971Z,70.52
2019-06-10T03:18:37.113Z,70.39
2019-06-10T03:20:42.668Z,70.49
2019-06-10T03:22:46.516Z,70.54
2019-06-10T03:24:52.377Z,70.70
2019-06-10T03:26:55.939Z,70.91
2019-06-10T03:28:59.926Z,70.92
2019-06-10T03:31:05.685Z,70.90
2019-06-10T03:33:09.514Z,70.90
2019-06-10T03:35:13.820Z,70.78
2019-06-10T03:37:18.318Z,70.93
2019-06-10T03:39:23.891Z,71.06
2019-06-10T03:41:27.997Z,71.12
2019-06-10T03:43:32.881Z,71.22
2019-06-10T03:45:37.024Z,71.26
2019-06-10T03:47:42.777Z,71.24
2019-06-10T03:49:52.512Z,71.31
2019-06-10T03:51:52.944Z,71.23
2019-06-10T03:53:56.943Z,71.32
2019-06-10T03:56:02.382Z,71.26
2019-06-10T03:58:06.771Z,71.23
2019-06-10T04:00:13.921Z,71.20
2019-06-10T04:02:17.309Z,71.22
2019-06-10T04:04:23.428Z,71.14
2019-06-10T04:06:27.685Z,71.13
2019-06-10T04:08:33.040Z,71.17
2019-06-10T04:10:37.061Z,71.14
2019-06-10T04:12:43.271Z,71.11
2019-06-10T04:14:46.688Z,71.08
2019-06-10T04:16:52.525Z,71.04
2019-06-10T04:18:56.295Z,70.93
2019-06-10T04:21:02.290Z,70.90
2019-06-10T04:23:05.929Z,70.85
2019-06-10T04:25:12.177Z,70.85
2019-06-10T04:27:15.808Z,70.90
2019-06-10T04:29:20.613Z,70.94
2019-06-10T04:31:26.536Z,70.98
2019-06-10T04:33:32.966Z,71.00
2019-06-10T04:35:36.638Z,71.05
2019-06-10T04:37:42.637Z,71.12
2019-06-10T04:39:46.070Z,71.20
2019-06-10T04:41:49.898Z,71.21
2019-06-10T04:43:53.804Z,71.25
2019-06-10T04:45:57.730Z,71.31
2019-06-10T04:48:03.056Z,71.35
2019-06-10T04:50:20.747Z,71.46
2019-06-10T04:52:13.511Z,71.50
2019-06-10T04:54:18.474Z,71.49
2019-06-10T04:56:25.832Z,71.51
2019-06-10T04:58:30.298Z,71.59
2019-06-10T05:00:34.512Z,71.65
2019-06-10T05:02:38.371Z,71.76
2019-06-10T05:04:42.688Z,71.85
2019-06-10T05:06:46.548Z,71.89
2019-06-10T05:08:50.473Z,71.93
2019-06-10T05:10:54.585Z,71.96
2019-06-10T05:12:58.592Z,71.81
2019-06-10T05:15:03.481Z,71.61
2019-06-10T05:17:07.705Z,71.53
2019-06-10T05:19:12.889Z,71.57
2019-06-10T05:21:17.030Z,71.41
2019-06-10T05:23:22.493Z,71.35
2019-06-10T05:25:27.232Z,71.35
2019-06-10T05:27:33.071Z,71.38
2019-06-10T05:29:37.099Z,71.35
2019-06-10T05:31:43.541Z,71.31
2019-06-10T05:33:46.746Z,71.33
2019-06-10T05:35:52.839Z,71.29
2019-06-10T05:37:56.458Z,71.34
2019-06-10T05:40:02.194Z,71.37
2019-06-10T05:42:06.031Z,71.58
2019-06-10T05:44:09.957Z,71.61
2019-06-10T05:46:13.956Z,71.64
2019-06-10T05:48:18.233Z,71.67
2019-06-10T05:50:22.531Z,71.58
2019-06-10T05:52:27.920Z,71.51
2019-06-10T05:54:34.063Z,71.41
2019-06-10T05:56:38.543Z,71.35
2019-06-10T05:58:43.636Z,71.19
2019-06-10T06:00:47.833Z,71.04
2019-06-10T06:02:52.266Z,70.97
2019-06-10T06:04:56.550Z,70.88
2019-06-10T06:07:02.383Z,70.93
2019-06-10T06:09:07.454Z,70.91
2019-06-10T06:11:12.684Z,70.84
2019-06-10T06:13:16.765Z,70.80
2019-06-10T06:15:22.119Z,70.82
2019-06-10T06:17:25.948Z,70.93
2019-06-10T06:19:36.654Z,70.96
2019-06-10T06:21:42.743Z,71.01
2019-06-10T06:23:44.333Z,71.04
2019-06-10T06:25:48.202Z,71.06
2019-06-10T06:27:52.494Z,71.05
2019-06-10T06:29:56.351Z,70.99
2019-06-10T06:32:02.556Z,70.92
2019-06-10T06:34:06.174Z,70.79
2019-06-10T06:36:12.453Z,70.65
2019-06-10T06:38:15.721Z,70.52
2019-06-10T06:40:20.346Z,70.30
2019-06-10T06:42:24.329Z,69.94
2019-06-10T06:44:28.175Z,69.59
2019-06-10T06:46:33.118Z,69.10
2019-06-10T06:48:40.294Z,68.57
2019-06-10T06:51:00.137Z,68.38
2019-06-10T06:53:18.982Z,68.40
2019-06-10T06:54:54.520Z,67.99
2019-06-10T06:56:58.439Z,67.45
2019-06-10T06:59:02.588Z,67.13
2019-06-10T07:01:11.017Z,66.70
2019-06-10T07:03:12.646Z,66.47
2019-06-10T07:05:16.760Z,66.20
2019-06-10T07:07:22.239Z,66.02
2019-06-10T07:09:28.328Z,65.76
2019-06-10T07:11:37.072Z,65.69
2019-06-10T07:13:45.647Z,65.79
2019-06-10T07:15:48.045Z,65.46
2019-06-10T07:17:52.647Z,65.21
2019-06-10T07:19:57.635Z,65.09
2019-06-10T07:22:09.481Z,64.92
2019-06-10T07:24:07.143Z,65.10
2019-06-10T07:26:12.724Z,65.20
2019-06-10T07:28:16.732Z,65.01
2019-06-10T07:30:22.930Z,65.12
2019-06-10T07:32:26.438Z,65.60
2019-06-10T07:34:32.566Z,66.19
2019-06-10T07:36:37.084Z,66.75
2019-06-10T07:38:45.756Z,66.95
2019-06-10T07:40:46.650Z,67.17
2019-06-10T07:42:52.924Z,67.13
2019-06-10T07:44:56.230Z,67.28
2019-06-10T07:47:02.446Z,67.13
2019-06-10T07:49:05.654Z,66.74
2019-06-10T07:51:09.385Z,66.41
2019-06-10T07:53:13.276Z,66.16
2019-06-10T07:55:17.520Z,66.02
2019-06-10T07:57:22.568Z,65.37
2019-06-10T07:59:26.417Z,65.35
2019-06-10T08:01:32.843Z,65.00
2019-06-10T08:03:36.916Z,64.85
2019-06-10T08:05:44.369Z,64.23
2019-06-10T08:07:48.860Z,64.18
2019-06-10T08:09:53.286Z,64.35
2019-06-10T08:11:57.202Z,64.44
2019-06-10T08:14:04.611Z,64.29
2019-06-10T08:16:06.466Z,64.29
2019-06-10T08:18:10.193Z,64.08
2019-06-10T08:20:16.614Z,64.01
2019-06-10T08:22:31.257Z,63.95
2019-06-10T08:24:25.865Z,64.01
2019-06-10T08:26:29.576Z,64.05
2019-06-10T08:28:33.506Z,63.93
2019-06-10T08:30:37.706Z,63.69
2019-06-10T08:32:46.344Z,63.37
2019-06-10T08:34:48.077Z,63.49
2019-06-10T08:36:54.434Z,63.70
2019-06-10T08:38:57.972Z,63.54
2019-06-10T08:41:03.218Z,62.98
2019-06-10T08:43:07.334Z,62.98
2019-06-10T08:45:12.521Z,62.98
2019-06-10T08:47:16.412Z,62.76
2019-06-10T08:49:20.168Z,62.50
2019-06-10T08:51:23.989Z,62.41
2019-06-10T08:53:27.715Z,62.08
2019-06-10T08:55:33.491Z,62.13
2019-06-10T08:57:38.421Z,61.98
2019-06-10T08:59:44.802Z,61.86
2019-06-10T09:01:51.529Z,61.49
2019-06-10T09:05:58.581Z,60.94
2019-06-10T09:08:03.331Z,60.69
2019-06-10T09:10:07.175Z,60.88
2019-06-10T09:12:27.906Z,60.73
2019-06-10T09:14:16.364Z,60.73
2019-06-10T09:16:22.654Z,60.64
2019-06-10T09:18:25.601Z,60.40
2019-06-10T09:20:29.572Z,60.46
2019-06-10T09:22:33.311Z,60.46
2019-06-10T09:24:37.047Z,60.40
2019-06-10T09:26:44.546Z,60.31
2019-06-10T09:28:51.284Z,60.38
2019-06-10T09:30:57.976Z,60.20
2019-06-10T09:33:00.735Z,60.07
2019-06-10T09:35:03.533Z,59.90
2019-06-10T09:37:07.379Z,59.55
2019-06-10T09:39:12.598Z,59.43
2019-06-10T09:41:16.727Z,59.43
2019-06-10T09:43:22.553Z,59.48
2019-06-10T09:45:26.535Z,59.48
2019-06-10T09:47:33.981Z,59.29
2019-06-10T09:49:37.023Z,59.04
2019-06-10T09:51:45.874Z,59.04
2019-06-10T09:53:54.617Z,59.06
2019-06-10T09:55:55.409Z,59.06
2019-06-10T09:57:59.888Z,59.33
2019-06-10T10:00:04.337Z,59.69
2019-06-10T10:02:08.282Z,60.03
2019-06-10T10:04:12.577Z,60.15
2019-06-10T10:06:16.283Z,60.54
2019-06-10T10:08:20.116Z,60.86
2019-06-10T10:10:32.838Z,61.16
2019-06-10T10:12:36.650Z,61.00
2019-06-10T10:14:44.442Z,59.95
2019-06-10T10:16:50.831Z,59.27
2019-06-10T10:18:57.594Z,58.90
2019-06-10T10:21:00.335Z,58.00
2019-06-10T10:23:03.011Z,57.23
2019-06-10T10:25:07.054Z,56.55
2019-06-10T10:27:13.223Z,56.61
2019-06-10T10:29:16.326Z,55.69
2019-06-10T10:31:20.055Z,54.20
2019-06-10T10:33:29.546Z,53.50
2019-06-10T10:35:32.500Z,52.71
2019-06-10T10:37:35.146Z,51.88
2019-06-10T10:39:38.873Z,51.21
2019-06-10T10:41:45.155Z,51.04
2019-06-10T10:43:51.349Z,50.45
2019-06-10T10:45:59.915Z,49.79
2019-06-10T10:48:02.540Z,49.65
2019-06-10T10:50:07.400Z,49.92
2019-06-10T10:52:12.947Z,49.61
2019-06-10T10:54:29.754Z,49.25
2019-06-10T10:56:22.984Z,49.48
2019-06-10T10:58:26.713Z,48.65
2019-06-10T11:00:45.507Z,49.20
2019-06-10T11:02:50.618Z,48.95
2019-06-10T11:04:56.834Z,49.29
2019-06-10T11:07:01.195Z,49.36
2019-06-10T11:09:08.879Z,49.39
2019-06-10T11:11:13.883Z,49.92
2019-06-10T11:13:22.270Z,50.87
2019-06-10T11:15:28.763Z,50.62
2019-06-10T11:17:33.660Z,50.75
2019-06-10T11:19:37.472Z,50.27
2019-06-10T11:21:42.679Z,50.28
2019-06-10T11:23:48.009Z,49.82
2019-06-10T11:25:55.458Z,50.03
2019-06-10T11:27:57.508Z,49.51
2019-06-10T11:30:02.494Z,49.56
2019-06-10T11:32:06.476Z,49.93
2019-06-10T11:34:10.194Z,49.91
2019-06-10T11:36:13.920Z,49.83
2019-06-10T11:38:17.733Z,48.69
2019-06-10T11:40:22.420Z,48.93
2019-06-10T11:42:26.415Z,48.99
2019-06-10T11:44:30.139Z,49.70
2019-06-10T11:46:33.871Z,49.09
2019-06-10T11:48:37.612Z,49.07
2019-06-10T11:50:42.831Z,49.03
2019-06-10T11:52:47.556Z,48.93
2019-06-10T11:55:03.505Z,48.53
2019-06-10T11:56:58.635Z,48.37
2019-06-10T11:59:09.362Z,47.75
2019-06-10T12:01:12.923Z,47.48
2019-06-10T12:03:16.020Z,47.25
2019-06-10T12:05:23.532Z,46.28
2019-06-10T12:07:27.115Z,45.90
2019-06-10T12:09:33.160Z,45.90
2019-06-10T12:11:36.370Z,45.47
2019-06-10T12:13:42.524Z,44.83
2019-06-10T12:16:30.495Z,44.97
2019-06-10T12:17:58.681Z,44.72
2019-06-10T12:19:59.629Z,45.41
2019-06-10T12:22:07.100Z,45.71
2019-06-10T12:24:08.068Z,45.49
2019-06-10T12:26:11.828Z,45.80
2019-06-10T12:28:15.510Z,45.76
2019-06-10T12:30:22.234Z,45.30
2019-06-10T12:32:25.540Z,45.08
2019-06-10T12:34:29.307Z,44.80
2019-06-10T12:36:33.137Z,44.67
2019-06-10T12:38:36.947Z,44.51
2019-06-10T12:40:42.812Z,44.06
2019-06-10T12:42:46.300Z,43.56
2019-06-10T12:44:50.100Z,43.21
2019-06-10T12:46:57.479Z,42.62
2019-06-10T12:49:02.000Z,42.72
2019-06-10T12:51:08.113Z,41.67
2019-06-10T12:53:12.504Z,41.08
2019-06-10T12:55:16.271Z,40.73
2019-06-10T12:57:20.035Z,40.12
2019-06-10T12:59:23.782Z,39.62
2019-06-10T13:01:27.656Z,39.68
2019-06-10T13:03:33.529Z,39.93
2019-06-10T13:05:37.277Z,40.42
2019-06-10T13:07:43.557Z,40.54
2019-06-10T13:09:47.426Z,41.07
2019-06-10T13:11:53.245Z,41.11
2019-06-10T13:13:57.803Z,41.68
2019-06-10T13:16:06.722Z,42.22
2019-06-10T13:18:08.679Z,42.53
2019-06-10T13:20:13.734Z,42.58
2019-06-10T13:22:17.477Z,42.71
2019-06-10T13:24:22.481Z,42.85
2019-06-10T13:26:26.264Z,43.08
2019-06-10T13:28:32.273Z,43.33
2019-06-10T13:30:35.922Z,43.36
2019-06-10T13:32:39.788Z,43.52
2019-06-10T13:34:43.494Z,43.80
2019-06-10T13:36:47.329Z,44.00
2019-06-10T13:38:53.219Z,44.28
2019-06-10T13:40:57.942Z,44.28
2019-06-10T13:43:01.830Z,44.40
2019-06-10T13:45:08.162Z,44.60
2019-06-10T13:47:14.615Z,44.75
2019-06-10T13:49:16.928Z,45.00
2019-06-10T13:51:20.653Z,45.32
2019-06-10T13:53:24.381Z,45.64
2019-06-10T13:55:28.205Z,45.68
2019-06-10T13:57:32.247Z,45.93
2019-06-10T13:59:36.115Z,46.22
2019-06-10T14:01:39.855Z,46.25
2019-06-10T14:03:44.181Z,46.16
2019-06-10T14:05:48.007Z,45.84
2019-06-10T14:07:52.508Z,45.75
2019-06-10T14:09:57.290Z,45.44
2019-06-10T14:12:02.003Z,44.91
2019-06-10T14:14:05.921Z,44.51
2019-06-10T14:16:09.674Z,44.27
2019-06-10T14:18:15.265Z,44.30
2019-06-10T14:20:19.891Z,44.02
2019-06-10T14:22:23.926Z,44.13
2019-06-10T14:24:27.741Z,44.16
2019-06-10T14:26:40.869Z,43.82
2019-06-10T14:28:41.045Z,43.67
2019-06-10T14:30:43.023Z,43.66
2019-06-10T14:32:47.011Z,43.72
2019-06-10T14:34:52.649Z,43.62
2019-06-10T14:36:56.234Z,43.63
2019-06-10T14:38:59.977Z,43.80
2019-06-10T14:41:05.024Z,44.00
2019-06-10T14:43:10.352Z,44.36
2019-06-10T14:45:16.598Z,44.70
2019-06-10T14:47:22.897Z,44.86
2019-06-10T14:49:26.231Z,44.97
2019-06-10T14:51:32.481Z,45.03
2019-06-10T14:53:35.459Z,45.12
2019-06-10T14:55:39.255Z,45.09
2019-06-10T14:57:43.025Z,45.09
2019-06-10T14:59:46.801Z,45.28
2019-06-10T15:01:52.143Z,45.46
2019-06-10T15:03:56.011Z,45.41
2019-06-10T15:05:59.825Z,45.50
2019-06-10T15:08:03.713Z,45.81
2019-06-10T15:10:07.902Z,46.12
2019-06-10T15:12:14.239Z,46.30
2019-06-10T15:14:17.826Z,46.50
2019-06-10T15:16:23.735Z,46.66
2019-06-10T15:18:27.314Z,46.86
2019-06-10T15:20:32.936Z,47.15
2019-06-10T15:22:36.529Z,47.32
2019-06-10T15:24:42.699Z,47.59
2019-06-10T15:26:45.751Z,47.71
2019-06-10T15:28:52.068Z,47.94
2019-06-10T15:30:55.024Z,48.07
2019-06-10T15:32:58.769Z,48.27
2019-06-10T15:35:03.339Z,48.56
2019-06-10T15:37:07.336Z,49.00
2019-06-10T15:39:14.579Z,49.65
2019-06-10T15:41:19.532Z,50.35
2019-06-10T15:43:23.398Z,50.79
2019-06-10T15:45:27.593Z,51.38
2019-06-10T15:47:31.348Z,51.69
2019-06-10T15:49:35.086Z,51.86
2019-06-10T15:51:38.905Z,51.93
2019-06-10T15:53:43.217Z,52.38
2019-06-10T15:56:10.342Z,52.75
2019-06-10T15:57:54.335Z,53.14
2019-06-10T15:59:58.114Z,54.00
2019-06-10T16:02:02.578Z,56.91
2019-06-10T16:04:06.541Z,58.67
2019-06-10T16:06:10.340Z,60.11
2019-06-10T16:08:15.543Z,60.96
2019-06-10T16:10:23.166Z,61.58
2019-06-10T16:12:26.915Z,62.01
2019-06-10T16:14:33.035Z,61.81
2019-06-10T16:16:36.299Z,61.95
2019-06-10T16:18:42.167Z,62.29
2019-06-10T16:20:45.552Z,62.61
2019-06-10T16:22:49.390Z,62.38
2019-06-10T16:24:53.175Z,62.75
2019-06-10T16:26:56.919Z,62.43
2019-06-10T16:29:02.745Z,62.31
2019-06-10T16:31:06.100Z,62.68
2019-06-10T16:33:09.841Z,63.02
2019-06-10T16:35:14.759Z,63.07
2019-06-10T16:37:19.150Z,63.66
2019-06-10T16:39:24.188Z,63.21
2019-06-10T16:41:28.440Z,63.12
2019-06-10T16:43:33.403Z,63.34
2019-06-10T16:45:37.540Z,64.10
2019-06-10T16:47:43.079Z,64.24
2019-06-10T16:49:46.790Z,64.61
2019-06-10T16:51:52.147Z,64.43
2019-06-10T16:53:56.148Z,64.44
2019-06-10T16:55:59.870Z,64.71
2019-06-10T16:58:03.778Z,65.20
2019-06-10T17:00:13.840Z,65.58
2019-06-10T17:02:15.197Z,65.96
2019-06-10T17:04:19.275Z,66.30
2019-06-10T17:06:25.127Z,66.52
2019-06-10T17:08:28.602Z,66.51
2019-06-10T17:10:34.403Z,66.50
2019-06-10T17:12:37.994Z,66.93
2019-06-10T17:14:42.916Z,67.12
2019-06-10T17:16:46.887Z,67.75
2019-06-10T17:18:50.868Z,67.95
2019-06-10T17:20:54.580Z,68.08
2019-06-10T17:23:00.212Z,68.32
2019-06-10T17:25:04.493Z,68.82
2019-06-10T17:27:08.367Z,69.12
2019-06-10T17:29:12.151Z,69.50
2019-06-10T17:31:15.884Z,69.31
2019-06-10T17:33:22.426Z,69.38
2019-06-10T17:35:26.227Z,69.13
2019-06-10T17:37:31.296Z,68.77
2019-06-10T17:39:35.519Z,68.56
2019-06-10T17:41:39.458Z,68.56
2019-06-10T17:43:43.159Z,68.64
2019-06-10T17:45:46.906Z,69.43
2019-06-10T17:47:52.457Z,69.63
2019-06-10T17:49:56.182Z,69.94
2019-06-10T17:52:02.410Z,70.23
2019-06-10T17:54:05.686Z,71.38
2019-06-10T17:56:09.521Z,72.80
2019-06-10T17:58:13.240Z,73.31
2019-06-10T18:00:18.083Z,73.12
2019-06-10T18:02:23.077Z,72.62
2019-06-10T18:04:27.525Z,72.49
2019-06-10T18:06:34.410Z,73.12
2019-06-10T18:08:40.492Z,73.04
2019-06-10T18:10:43.444Z,73.34
2019-06-10T18:12:47.313Z,74.00
2019-06-10T18:14:52.434Z,73.94
2019-06-10T18:16:56.276Z,73.78
2019-06-10T18:19:00.009Z,73.42
2019-06-10T18:21:03.835Z,73.46
2019-06-10T18:23:07.561Z,74.19
2019-06-10T18:25:12.343Z,74.04
2019-06-10T18:27:16.355Z,74.00
2019-06-10T18:29:22.780Z,75.05
2019-06-10T18:31:25.644Z,75.13
2019-06-10T18:33:29.655Z,75.34
2019-06-10T18:35:35.921Z,75.42
2019-06-10T18:37:39.137Z,75.28
2019-06-10T18:39:43.210Z,75.35
2019-06-10T18:41:46.899Z,75.66
2019-06-10T18:43:50.621Z,75.81
2019-06-10T18:45:54.427Z,75.78
2019-06-10T18:47:58.158Z,75.59
2019-06-10T18:50:02.016Z,75.59
2019-06-10T18:52:05.899Z,75.42
2019-06-10T18:54:09.636Z,75.50
2019-06-10T18:56:13.466Z,75.34
2019-06-10T18:58:17.308Z,75.47
2019-06-10T19:00:22.944Z,75.43
2019-06-10T19:02:28.203Z,75.21
2019-06-10T19:04:35.269Z,74.87
2019-06-10T19:06:39.861Z,74.66
2019-06-10T19:08:44.526Z,74.38
2019-06-10T19:10:48.438Z,74.32
2019-06-10T19:12:53.181Z,74.47
2019-06-10T19:14:57.000Z,74.83
2019-06-10T19:17:02.883Z,74.75
2019-06-10T19:19:06.290Z,74.75
2019-06-10T19:21:12.601Z,74.67
2019-06-10T19:23:16.546Z,74.78
2019-06-10T19:25:20.806Z,74.49
2019-06-10T19:27:25.000Z,73.92
2019-06-10T19:29:35.108Z,73.92
2019-06-10T19:31:37.236Z,73.67
2019-06-10T19:33:41.332Z,73.91
2019-06-10T19:35:45.128Z,74.03
2019-06-10T19:37:48.861Z,73.94
2019-06-10T19:39:54.175Z,73.94
2019-06-10T19:41:58.064Z,74.02
2019-06-10T19:44:02.457Z,73.95
2019-06-10T19:46:07.648Z,73.95
2019-06-10T19:48:12.442Z,73.80
2019-06-10T19:50:17.603Z,73.73
2019-06-10T19:52:23.469Z,73.58
2019-06-10T19:54:26.925Z,73.31
2019-06-10T19:56:33.004Z,73.33
2019-06-10T19:58:36.873Z,73.40
2019-06-10T20:00:41.601Z,73.40
2019-06-10T20:02:46.990Z,73.48
2019-06-10T20:04:52.776Z,73.36
2019-06-10T20:06:56.450Z,73.15
2019-06-10T20:09:02.582Z,72.92
2019-06-10T20:11:05.811Z,72.94
2019-06-10T20:13:09.564Z,72.94
2019-06-10T20:15:24.286Z,72.75
2019-06-10T20:17:28.000Z,72.81
2019-06-10T20:19:32.646Z,72.76
2019-06-10T20:21:36.639Z,72.62
2019-06-10T20:23:42.738Z,72.76
2019-06-10T20:25:46.919Z,72.76
2019-06-10T20:27:52.337Z,72.75
2019-06-10T20:30:07.161Z,72.82
2019-06-10T20:32:01.868Z,72.77
2019-06-10T20:34:05.678Z,72.77
2019-06-10T20:36:17.792Z,73.10
2019-06-10T20:38:15.037Z,73.29
2019-06-10T20:40:19.257Z,73.58
2019-06-10T20:42:23.266Z,73.71
2019-06-10T20:44:27.094Z,73.97
2019-06-10T20:46:32.370Z,74.01
2019-06-10T20:48:36.070Z,74.00
2019-06-10T20:50:43.238Z,73.89
2019-06-10T20:52:46.350Z,73.70
2019-06-10T20:54:53.053Z,73.62
2019-06-10T20:56:56.243Z,73.74
2019-06-10T20:58:59.990Z,73.57
2019-06-10T21:01:04.819Z,73.71
2019-06-10T21:03:09.056Z,73.59
2019-06-10T21:05:13.407Z,73.51
2019-06-10T21:07:18.085Z,73.50
2019-06-10T21:09:23.177Z,73.39
2019-06-10T21:11:26.946Z,73.23
2019-06-10T21:13:32.919Z,73.47
2019-06-10T21:15:36.975Z,73.60
2019-06-10T21:17:43.264Z,73.51
2019-06-10T21:19:47.916Z,73.29
2019-06-10T21:21:54.812Z,73.21
2019-06-10T21:23:57.788Z,73.20
2019-06-10T21:26:03.034Z,73.25
2019-06-10T21:28:06.959Z,73.07
2019-06-10T21:30:11.917Z,73.12
2019-06-10T21:32:15.776Z,73.17
2019-06-10T21:34:19.670Z,73.16
2019-06-10T21:36:24.047Z,73.10
2019-06-10T21:38:27.927Z,72.73
2019-06-10T21:40:33.091Z,73.06
2019-06-10T21:42:36.985Z,73.45
2019-06-10T21:44:41.754Z,73.53
2019-06-10T21:46:47.210Z,73.57
2019-06-10T21:48:55.973Z,73.58
2019-06-10T21:50:59.917Z,73.76
2019-06-10T21:53:03.894Z,73.81
2019-06-10T21:55:08.166Z,73.85
2019-06-10T21:57:12.076Z,74.02
2019-06-10T21:59:17.164Z,74.13
2019-06-10T22:01:22.431Z,74.13
2019-06-10T22:03:26.600Z,74.17
2019-06-10T22:05:33.037Z,74.18
2019-06-10T22:07:36.283Z,74.13
2019-06-10T22:09:42.426Z,74.16
2019-06-10T22:11:45.942Z,74.08
2019-06-10T22:13:50.802Z,73.95
2019-06-10T22:15:57.191Z,73.77
2019-06-10T22:18:02.212Z,73.74
2019-06-10T22:20:06.937Z,73.64
2019-06-10T22:22:12.993Z,73.51
2019-06-10T22:24:16.523Z,73.49
2019-06-10T22:26:22.489Z,73.54
2019-06-10T22:28:25.963Z,73.55
2019-06-10T22:30:31.947Z,73.63
2019-06-10T22:32:35.472Z,73.58
2019-06-10T22:34:39.294Z,73.56
2019-06-10T22:36:43.223Z,73.53
2019-06-10T22:38:47.886Z,73.64
2019-06-10T22:40:55.043Z,73.78
2019-06-10T22:42:57.421Z,73.89
2019-06-10T22:45:03.981Z,73.98
2019-06-10T22:47:06.859Z,73.97
2019-06-10T22:49:13.274Z,74.00
2019-06-10T22:51:16.285Z,74.18
2019-06-10T22:53:23.017Z,74.30
2019-06-10T22:55:25.935Z,74.40
2019-06-10T22:57:29.864Z,74.44
2019-06-10T22:59:33.942Z,74.26
2019-06-10T23:01:38.560Z,74.26
2019-06-10T23:03:42.595Z,74.28
2019-06-10T23:05:46.567Z,74.20
2019-06-10T23:07:52.824Z,74.27
2019-06-10T23:09:56.382Z,74.34
2019-06-10T23:12:02.916Z,74.29
2019-06-10T23:14:06.892Z,74.28
2019-06-10T23:16:12.888Z,74.33
2019-06-10T23:18:16.272Z,74.38
2019-06-10T23:20:20.071Z,74.40
2019-06-10T23:22:23.875Z,74.44
2019-06-10T23:24:27.807Z,74.46
2019-06-10T23:26:33.184Z,74.52
2019-06-10T23:28:43.187Z,74.62
2019-06-10T23:30:47.251Z,74.54
2019-06-10T23:32:54.428Z,74.46
2019-06-10T23:34:58.240Z,74.49
2019-06-10T23:37:02.453Z,74.55
2019-06-10T23:39:07.199Z,74.59
2019-06-10T23:41:12.969Z,74.62
2019-06-10T23:43:16.718Z,74.62
2019-06-10T23:45:22.395Z,74.62
2019-06-10T23:47:26.089Z,74.65
2019-06-10T23:49:32.143Z,74.63
2019-06-10T23:51:35.584Z,74.70
2019-06-10T23:53:39.573Z,74.68
2019-06-10T23:55:43.534Z,74.56
2019-06-10T23:57:47.670Z,74.63
2019-06-10T23:59:52.499Z,74.81
